Aérodrome :
LOGIN :

S'inscrire | Disclaimer

   EN    FR    IT 

 










Légende :    VFR   VFR Marginal   IFR   IFR Intensif   IFR Très Intensif
Visi : 
Plafond : 
>= 8 km
>= 3000ft
5 à 8 km
1000 à 3000 ft
1500m à 5 km
500 à 1000 ft
800 à 1500m
200 à 500 ft
< 800m
< 200 ft
Symboles :   Orages  Brouillard  Fortes neiges  Fortes précipitations  Vent > 20 kt
SIGMETs :   Divers  Orages  Givrage  Turbulence  Onde Orograph.  Cendres Volcan.






- Altitude de l'aérodrome : 992 ft


LIRV - Roma Viterbo Air Force Base (military)

DERNIER METAR :
  • 071455Z 07009KT 9999 TS SCT028 FEW030CB 30/17 Q1012 RMK BKN MON E SE LIB NC VIS MIN 9999 WIND THR04 /////KT BLU

METARs EXPIRÉS :
  • 071355Z 32011KT 9999 TS FEW027 SCT030CB 31/16 Q1012 RMK BKN MON E SE LIB NC VIS MIN 9999 WIND THR04 /////KT BLU
  • 071255Z 08002KT 9999 SCT027 FEW030TCU 35/14 Q1012 RMK BKN MON E SE LIB NC VIS MIN 9999 WIND THR04 /////KT BLU

TAF TAF LIRV
Valide du 07 à 15h jusqu'au 08 à 00h UTC


071400Z 0715/0724 31015KT 9999 FEW025
TEMPO 0715/0717 TSRA SCT030CB
BECMG 0718/0720 03005KT



MET'MAP, la Météo Aéronautique d'un coup d'oeil ! - Copyright ORBIFLY Décembre 2007 - Disclaimer

ORBIFLY MET'MAP TEAM :

Programmation & Développement : Alexandra Zaïnal
Sur une idée originale de : Baudouin d'Aumeries
Soutien technique & logistique : Manuel Goepfert
Assistance : Marc-Olivier Méhu




SOURCES & CREDITS :

   NOAA